Time;durP1;ratioP1;P1;durP2;ratioP2;P2;SDS_P1;SDS_P2;PMS_P1;PMS_P2;Temp;Humidity;BMP_temperature;BMP_pressure;BME280_temperature;BME280_humidity;BME280_pressure;Samples;Min_cycle;Max_cycle;Signal;HPM_P1;HPM_P2
2024/02/11 00:02:27;;;;;;;34.85;11.38;;;;;;;3.74;100.00;98605.19;5078082;28;21458;-78
2024/02/11 00:05:00;;;;;;;33.33;11.55;;;;;;;3.71;100.00;98594.19;5073089;28;20437;-78
2024/02/11 00:07:29;;;;;;;29.05;11.60;;;;;;;3.78;100.00;98589.25;5075289;28;20426;-78
2024/02/11 00:10:08;;;;;;;36.03;11.98;;;;;;;3.81;100.00;98591.41;5074226;28;20422;-78
2024/02/11 00:12:41;;;;;;;28.52;11.05;;;;;;;3.78;100.00;98581.19;5089058;28;20430;-78
2024/02/11 00:15:15;;;;;;;34.65;11.00;;;;;;;3.82;100.00;98582.22;5075751;28;20529;-78
2024/02/11 00:17:48;;;;;;;35.60;11.55;;;;;;;3.82;100.00;98584.91;5074610;28;20431;-78
2024/02/11 00:20:21;;;;;;;36.22;11.48;;;;;;;3.71;100.00;98589.59;5076945;28;20426;-78
2024/02/11 00:22:50;;;;;;;28.73;11.30;;;;;;;3.59;100.00;98586.53;5090683;28;20430;-78
2024/02/11 00:25:25;;;;;;;32.13;11.45;;;;;;;3.62;100.00;98585.13;5075464;28;20422;-78
2024/02/11 00:27:54;;;;;;;26.58;11.40;;;;;;;3.56;100.00;98579.00;5090596;28;20440;-78
2024/02/11 00:30:27;;;;;;;27.58;11.07;;;;;;;3.57;100.00;98570.66;5078570;28;20431;-78
2024/02/11 00:33:01;;;;;;;28.10;10.52;;;;;;;3.69;100.00;98566.78;5073102;28;20920;-78
2024/02/11 00:35:34;;;;;;;30.77;11.73;;;;;;;3.57;100.00;98567.97;5074543;28;20418;-78
2024/02/11 00:38:09;;;;;;;47.10;11.67;;;;;;;3.56;100.00;98563.69;5076614;28;20434;-78
2024/02/11 00:40:39;;;;;;;31.70;11.03;;;;;;;3.49;100.00;98557.81;5072167;28;20421;-78
2024/02/11 00:43:12;;;;;;;30.83;11.23;;;;;;;3.56;100.00;98558.31;5075492;28;20437;-78
2024/02/11 00:45:41;;;;;;;26.83;10.55;;;;;;;3.55;100.00;98558.59;5075528;28;20784;-78
2024/02/11 00:48:14;;;;;;;30.95;11.18;;;;;;;3.48;100.00;98569.69;5078404;28;20424;-78
2024/02/11 00:50:48;;;;;;;36.33;11.65;;;;;;;3.43;100.00;98567.03;5074178;28;20424;-78
2024/02/11 00:53:16;;;;;;;28.02;11.07;;;;;;;3.38;100.00;98550.94;5074693;28;20422;-78
2024/02/11 00:55:51;;;;;;;29.83;11.73;;;;;;;3.55;100.00;98561.28;5074375;28;20425;-77
2024/02/11 00:58:24;;;;;;;27.20;10.87;;;;;;;3.47;100.00;98551.16;5076112;28;20892;-78
2024/02/11 01:00:57;;;;;;;28.77;11.15;;;;;;;3.47;100.00;98545.78;5076193;28;20427;-78
2024/02/11 01:03:31;;;;;;;30.63;11.75;;;;;;;3.46;100.00;98538.78;5073467;28;20443;-78
2024/02/11 01:05:59;;;;;;;24.33;10.75;;;;;;;3.49;100.00;98540.91;5075458;28;20431;-78
2024/02/11 01:08:32;;;;;;;36.17;11.40;;;;;;;3.51;100.00;98541.44;5076693;28;20428;-78
2024/02/11 01:11:08;;;;;;;29.52;10.88;;;;;;;3.51;100.00;98546.81;5076578;28;20441;-78
2024/02/11 01:13:36;;;;;;;34.00;10.80;;;;;;;3.32;100.00;98549.41;5080559;28;20445;-78
2024/02/11 01:16:09;;;;;;;38.85;11.52;;;;;;;3.50;100.00;98550.56;5077521;28;20440;-78
2024/02/11 01:18:46;;;;;;;37.55;10.55;;;;;;;3.39;100.00;98547.97;5093136;27;20421;-78
2024/02/11 01:21:19;;;;;;;48.35;11.20;;;;;;;3.53;100.00;98558.84;5078650;28;20914;-78
2024/02/11 01:23:48;;;;;;;37.70;10.63;;;;;;;3.49;100.00;98552.44;5078029;28;20987;-78
2024/02/11 01:26:22;;;;;;;49.03;10.80;;;;;;;3.33;100.00;98561.75;5079940;28;20444;-77
2024/02/11 01:28:51;;;;;;;34.70;10.80;;;;;;;3.40;100.00;98562.25;5074922;28;20454;-78
2024/02/11 01:31:19;;;;;;;43.22;11.02;;;;;;;3.44;100.00;98557.91;5081640;28;20765;-78
2024/02/11 01:33:49;;;;;;;38.53;10.50;;;;;;;3.40;100.00;98565.72;5077771;28;20482;-78
2024/02/11 01:36:17;;;;;;;41.33;9.98;;;;;;;3.36;100.00;98548.56;5076158;28;21107;-77
2024/02/11 01:38:53;;;;;;;43.53;10.77;;;;;;;3.50;100.00;98539.81;5077289;28;20420;-78
2024/02/11 01:41:27;;;;;;;50.17;10.43;;;;;;;3.36;100.00;98535.09;5074495;28;20422;-78
2024/02/11 01:44:01;;;;;;;58.15;10.05;;;;;;;3.31;100.00;98535.16;5077754;28;20477;-78
2024/02/11 01:46:29;;;;;;;36.85;9.63;;;;;;;3.39;100.00;98541.81;5082129;28;20878;-78
2024/02/11 01:49:04;;;;;;;38.95;9.65;;;;;;;3.38;100.00;98542.88;5078905;28;20418;-78
2024/02/11 01:51:35;;;;;;;39.03;10.00;;;;;;;3.39;100.00;98547.19;5079355;28;20413;-78
2024/02/11 01:54:11;;;;;;;28.10;9.32;;;;;;;3.45;100.00;98543.34;5085118;28;20470;-78
2024/02/11 01:56:49;;;;;;;45.00;9.35;;;;;;;3.35;100.00;98549.63;5080524;28;20414;-78
2024/02/11 01:59:22;;;;;;;35.97;10.13;;;;;;;3.30;100.00;98559.63;5074004;28;20420;-78
2024/02/11 02:01:56;;;;;;;51.08;10.10;;;;;;;3.37;100.00;98566.28;5081673;28;20430;-78
2024/02/11 02:04:29;;;;;;;33.57;9.63;;;;;;;3.34;100.00;98552.59;5074983;28;20448;-78
2024/02/11 02:07:03;;;;;;;39.58;9.95;;;;;;;3.29;100.00;98558.84;5074848;28;20439;-78
2024/02/11 02:09:32;;;;;;;33.85;9.50;;;;;;;3.38;100.00;98556.31;5076978;28;20770;-78
2024/02/11 02:12:04;;;;;;;42.33;10.75;;;;;;;3.31;100.00;98555.88;5075881;28;20521;-78
2024/02/11 02:14:33;;;;;;;64.00;9.73;;;;;;;3.39;100.00;98547.19;5093888;27;20427;-78
2024/02/11 02:17:07;;;;;;;30.25;9.77;;;;;;;3.35;100.00;98538.09;5079594;28;20440;-78
2024/02/11 02:19:35;;;;;;;31.33;9.70;;;;;;;3.36;100.00;98539.69;5079938;28;20418;-78
2024/02/11 02:22:10;;;;;;;30.73;9.77;;;;;;;3.28;100.00;98534.94;5079780;28;20432;-77
2024/02/11 02:24:43;;;;;;;32.08;10.20;;;;;;;3.28;100.00;98527.66;5074080;28;20422;-78
2024/02/11 02:27:12;;;;;;;48.88;10.70;;;;;;;3.22;100.00;98537.66;5075027;28;20436;-78
2024/02/11 02:29:45;;;;;;;50.63;10.63;;;;;;;3.28;100.00;98533.03;5078346;28;20520;-78
2024/02/11 02:32:18;;;;;;;44.38;11.10;;;;;;;3.26;100.00;98537.91;5074458;28;20435;-78
2024/02/11 02:34:47;;;;;;;30.65;10.35;;;;;;;3.24;100.00;98537.38;5074126;28;20433;-78
2024/02/11 02:37:16;;;;;;;37.58;10.25;;;;;;;3.26;100.00;98539.78;5081500;28;20909;-78
2024/02/11 02:39:49;;;;;;;27.90;10.40;;;;;;;3.30;100.00;98538.13;5076177;28;20796;-78
2024/02/11 02:42:22;;;;;;;34.25;10.57;;;;;;;3.35;100.00;98541.56;5072271;28;20429;-78
2024/02/11 02:44:51;;;;;;;36.00;10.27;;;;;;;3.28;100.00;98537.63;5075959;28;20437;-78
2024/02/11 02:47:19;;;;;;;31.77;10.57;;;;;;;3.36;100.00;98537.78;5076011;28;20992;-78
2024/02/11 02:49:52;;;;;;;30.35;10.70;;;;;;;3.34;100.00;98531.91;5077568;28;20426;-78
2024/02/11 02:52:28;;;;;;;30.17;10.48;;;;;;;3.47;100.00;98526.94;5080316;28;20919;-78
2024/02/11 02:55:05;;;;;;;30.58;10.90;;;;;;;3.38;100.00;98524.88;5073874;28;20993;-78
2024/02/11 02:57:38;;;;;;;34.63;10.40;;;;;;;3.42;100.00;98527.00;5089551;27;20429;-78
2024/02/11 03:00:12;;;;;;;49.22;11.35;;;;;;;3.22;100.00;98518.06;5076357;28;20826;-78
2024/02/11 03:02:45;;;;;;;29.50;10.65;;;;;;;3.34;100.00;98521.16;5075176;28;20421;-78
2024/02/11 03:05:21;;;;;;;50.67;11.25;;;;;;;3.24;100.00;98521.25;5073525;28;20429;-78
2024/02/11 03:07:56;;;;;;;32.30;10.80;;;;;;;3.24;100.00;98521.25;5077349;28;20430;-78
2024/02/11 03:10:25;;;;;;;33.35;10.95;;;;;;;3.18;100.00;98523.19;5076888;28;20436;-78
2024/02/11 03:12:54;;;;;;;33.92;10.93;;;;;;;3.19;100.00;98523.97;5073204;28;20423;-78
2024/02/11 03:15:27;;;;;;;36.80;11.75;;;;;;;3.30;100.00;98524.69;5073947;28;20514;-78
2024/02/11 03:18:01;;;;;;;38.92;11.32;;;;;;;3.21;100.00;98533.38;5078574;28;20420;-78
2024/02/11 03:20:35;;;;;;;52.40;11.85;;;;;;;3.21;100.00;98517.25;5077238;28;20430;-78
2024/02/11 03:23:10;;;;;;;28.00;10.63;;;;;;;3.35;100.00;98513.88;5074692;28;20896;-78
2024/02/11 03:25:38;;;;;;;32.90;11.63;;;;;;;3.23;100.00;98522.31;5074592;28;20775;-78
2024/02/11 03:28:13;;;;;;;64.53;12.02;;;;;;;3.31;100.00;98510.97;5074524;28;20428;-78
2024/02/11 03:30:46;;;;;;;31.00;11.05;;;;;;;3.38;100.00;98510.63;5074253;28;20426;-78
2024/02/11 03:33:14;;;;;;;40.38;11.45;;;;;;;3.37;100.00;98515.22;5090667;28;20431;-78
2024/02/11 03:35:47;;;;;;;42.08;11.85;;;;;;;3.37;100.00;98517.06;5075419;28;20438;-78
2024/02/11 03:38:23;;;;;;;39.00;10.93;;;;;;;3.55;100.00;98513.66;5076000;28;20476;-78
2024/02/11 03:40:57;;;;;;;36.58;11.35;;;;;;;3.43;100.00;98523.22;5076763;28;20413;-78
2024/02/11 03:43:30;;;;;;;27.67;10.50;;;;;;;3.44;100.00;98517.56;5078751;28;20422;-78
2024/02/11 03:46:00;;;;;;;33.75;11.35;;;;;;;3.56;100.00;98511.75;5075799;28;20441;-78
2024/02/11 03:48:28;;;;;;;35.97;11.18;;;;;;;3.54;100.00;98505.88;5076097;28;20451;-78
2024/02/11 03:51:02;;;;;;;45.28;11.43;;;;;;;3.36;100.00;98502.84;5073067;28;20422;-78
2024/02/11 03:53:38;;;;;;;42.03;11.02;;;;;;;3.34;100.00;98504.22;5075611;28;20421;-78
2024/02/11 03:56:06;;;;;;;33.50;11.60;;;;;;;3.42;100.00;98502.78;5074263;28;20432;-78
2024/02/11 03:58:41;;;;;;;40.05;11.32;;;;;;;3.26;100.00;98492.22;5090297;28;20911;-78
2024/02/11 04:01:14;;;;;;;33.22;12.30;;;;;;;3.40;100.00;98493.13;5077002;28;20423;-78
2024/02/11 04:03:42;;;;;;;29.80;11.23;;;;;;;3.27;100.00;98485.72;5076914;28;20431;-78
2024/02/11 04:06:18;;;;;;;32.85;11.43;;;;;;;3.30;100.00;98485.19;5073262;28;21352;-78
2024/02/11 04:08:53;;;;;;;29.67;11.38;;;;;;;3.29;100.00;98493.53;5090186;28;20433;-78
2024/02/11 04:11:28;;;;;;;30.88;11.77;;;;;;;3.30;100.00;98487.88;5076368;28;20448;-78
2024/02/11 04:14:02;;;;;;;35.67;11.68;;;;;;;3.43;100.00;98486.38;5072619;28;20423;-77
2024/02/11 04:16:35;;;;;;;40.10;11.40;;;;;;;3.26;100.00;98489.53;5074551;28;20467;-78
2024/02/11 04:19:11;;;;;;;28.42;11.48;;;;;;;3.26;100.00;98483.34;5077841;28;21490;-78
2024/02/11 04:21:45;;;;;;;33.33;11.60;;;;;;;3.30;100.00;98477.13;5071734;28;20426;-78
2024/02/11 04:24:15;;;;;;;27.40;11.48;;;;;;;3.28;100.00;98483.84;5107621;28;20428;-78
2024/02/11 04:26:53;;;;;;;35.20;11.80;;;;;;;3.45;100.00;98484.19;5074340;28;20901;-78
2024/02/11 04:29:26;;;;;;;35.08;12.30;;;;;;;3.32;100.00;98479.50;5091187;28;20424;-77
2024/02/11 04:32:00;;;;;;;29.65;11.48;;;;;;;3.31;100.00;98480.59;5090572;28;20432;-78
2024/02/11 04:34:33;;;;;;;45.25;12.68;;;;;;;3.21;100.00;98476.13;5078414;28;20419;-77
2024/02/11 04:37:06;;;;;;;36.40;12.40;;;;;;;3.26;100.00;98483.34;5082452;28;20430;-78
2024/02/11 04:39:41;;;;;;;47.33;12.30;;;;;;;3.25;100.00;98476.38;5073023;28;20914;-78
2024/02/11 04:42:16;;;;;;;42.03;11.52;;;;;;;3.30;100.00;98481.69;5077099;28;20878;-78
2024/02/11 04:44:51;;;;;;;43.25;12.38;;;;;;;3.30;100.00;98487.06;5081464;28;20423;-77
2024/02/11 04:47:24;;;;;;;34.93;11.83;;;;;;;3.48;100.00;98488.19;5080192;28;20422;-78
2024/02/11 04:49:58;;;;;;;35.22;11.90;;;;;;;3.44;100.00;98489.84;5084275;28;20444;-78
2024/02/11 04:52:27;;;;;;;39.38;12.68;;;;;;;3.36;100.00;98491.31;5082774;28;20436;-77
2024/02/11 04:55:01;;;;;;;44.88;13.02;;;;;;;3.35;100.00;98495.84;5079263;28;20422;-78
2024/02/11 04:57:38;;;;;;;36.88;12.48;;;;;;;3.47;100.00;98497.38;5093608;27;20426;-78
2024/02/11 05:00:23;;;;;;;33.75;12.07;;;;;;;3.37;100.00;98504.44;5079340;28;20429;-78
2024/02/11 05:02:58;;;;;;;34.10;12.27;;;;;;;3.29;100.00;98498.91;5076098;28;20421;-78
2024/02/11 05:05:28;;;;;;;37.20;12.63;;;;;;;3.34;100.00;98502.34;5075390;28;20432;-78
2024/02/11 05:08:03;;;;;;;33.83;12.80;;;;;;;3.29;100.00;98486.25;5082218;28;20433;-78
2024/02/11 05:10:38;;;;;;;31.42;12.70;;;;;;;3.45;100.00;98494.16;5082001;28;21027;-78
2024/02/11 05:13:12;;;;;;;32.03;12.88;;;;;;;3.44;100.00;98496.06;5078966;28;20406;-78
2024/02/11 05:15:48;;;;;;;30.17;12.52;;;;;;;3.37;100.00;98493.69;5096355;27;20429;-78
2024/02/11 05:18:18;;;;;;;28.90;12.02;;;;;;;3.48;100.00;98490.88;5078726;28;20410;-78
2024/02/11 05:20:52;;;;;;;30.42;12.30;;;;;;;3.33;100.00;98495.34;5075089;28;20424;-78
2024/02/11 05:23:20;;;;;;;31.27;12.27;;;;;;;3.28;100.00;98498.09;5078372;28;20435;-78
2024/02/11 05:25:56;;;;;;;31.80;11.63;;;;;;;3.32;100.00;98496.44;5076338;28;20423;-78
2024/02/11 05:28:24;;;;;;;26.52;11.95;;;;;;;3.43;100.00;98504.41;5075810;28;20422;-78
2024/02/11 05:30:58;;;;;;;27.75;12.05;;;;;;;3.42;100.00;98502.78;5081563;28;20422;-78
2024/02/11 05:33:31;;;;;;;34.22;12.20;;;;;;;3.30;100.00;98498.63;5076592;28;20423;-78
2024/02/11 05:36:08;;;;;;;25.60;11.73;;;;;;;3.29;100.00;98501.59;5075985;28;20430;-78
2024/02/11 05:38:41;;;;;;;34.75;12.10;;;;;;;3.30;100.00;98506.69;5075625;28;20423;-78
2024/02/11 05:41:16;;;;;;;27.95;11.18;;;;;;;3.34;100.00;98498.84;5076747;28;21104;-78
2024/02/11 05:43:49;;;;;;;30.58;11.70;;;;;;;3.25;100.00;98497.88;5075237;28;20480;-77
2024/02/11 05:46:22;;;;;;;31.77;11.63;;;;;;;3.35;100.00;98505.81;5077811;28;20421;-78
2024/02/11 05:48:50;;;;;;;26.75;11.50;;;;;;;3.28;100.00;98505.38;5076427;28;20417;-78
2024/02/11 05:51:24;;;;;;;33.88;12.38;;;;;;;3.34;100.00;98504.22;5076687;28;20438;-78
2024/02/11 05:53:57;;;;;;;31.80;11.63;;;;;;;3.34;100.00;98490.78;5075679;28;20434;-77
2024/02/11 05:56:32;;;;;;;29.70;11.73;;;;;;;3.33;100.00;98486.47;5077119;28;20501;-78
2024/02/11 05:59:01;;;;;;;27.52;11.85;;;;;;;3.43;100.00;98486.38;5089429;28;20428;-78
2024/02/11 06:01:34;;;;;;;28.27;11.60;;;;;;;3.35;100.00;98485.09;5070033;28;21166;-78
2024/02/11 06:04:07;;;;;;;30.48;11.13;;;;;;;3.33;100.00;98498.03;5087534;27;20437;-77
2024/02/11 06:06:40;;;;;;;31.63;11.80;;;;;;;3.29;100.00;98494.31;5076719;28;20931;-78
2024/02/11 06:09:14;;;;;;;27.30;11.57;;;;;;;3.31;100.00;98494.03;5080163;28;20784;-78
2024/02/11 06:11:43;;;;;;;33.03;12.32;;;;;;;3.34;100.00;98493.47;5077600;28;20428;-78
2024/02/11 06:14:16;;;;;;;30.52;11.57;;;;;;;3.36;100.00;98494.00;5079373;28;20420;-78
2024/02/11 06:16:50;;;;;;;30.23;11.40;;;;;;;3.31;100.00;98488.66;5082121;28;20761;-78
2024/02/11 06:19:23;;;;;;;33.60;11.73;;;;;;;3.34;100.00;98488.91;5076540;28;20424;-78
2024/02/11 06:21:51;;;;;;;29.42;11.50;;;;;;;3.22;100.00;98491.97;5080345;28;20421;-78
2024/02/11 06:24:25;;;;;;;35.47;12.57;;;;;;;3.23;100.00;98488.22;5077477;28;20438;-78
2024/02/11 06:26:59;;;;;;;33.00;12.18;;;;;;;3.36;100.00;98489.41;5078662;28;20431;-78
2024/02/11 06:29:32;;;;;;;37.35;12.07;;;;;;;3.36;100.00;98489.41;5077803;28;21401;-78
2024/02/11 06:32:02;;;;;;;31.70;11.53;;;;;;;3.37;100.00;98498.25;5074381;28;20450;-78
2024/02/11 06:34:30;;;;;;;34.63;11.60;;;;;;;3.42;100.00;98500.09;5081502;28;20431;-78
2024/02/11 06:37:04;;;;;;;33.15;11.60;;;;;;;3.31;100.00;98499.41;5073363;28;20434;-78
2024/02/11 06:39:38;;;;;;;30.75;12.50;;;;;;;3.45;100.00;98503.00;5075911;28;20412;-78
2024/02/11 06:42:14;;;;;;;33.95;12.27;;;;;;;3.38;100.00;98498.00;5073396;28;20911;-78
2024/02/11 06:44:42;;;;;;;28.52;11.95;;;;;;;3.35;100.00;98506.63;5078960;28;20416;-78
2024/02/11 06:47:15;;;;;;;32.57;12.43;;;;;;;3.44;100.00;98501.44;5077498;28;20932;-78
2024/02/11 06:49:48;;;;;;;34.63;12.82;;;;;;;3.46;100.00;98503.81;5075435;28;20450;-78
2024/02/11 06:52:24;;;;;;;34.22;12.48;;;;;;;3.35;100.00;98516.56;5077766;28;20430;-78
2024/02/11 06:54:58;;;;;;;35.13;12.57;;;;;;;3.30;100.00;98505.88;5075038;28;20446;-78
2024/02/11 06:57:33;;;;;;;33.13;12.45;;;;;;;3.27;100.00;98507.22;5074173;28;20418;-78
2024/02/11 07:00:09;;;;;;;34.10;13.00;;;;;;;3.39;100.00;98507.66;5076054;28;20513;-78
2024/02/11 07:02:37;;;;;;;35.53;12.38;;;;;;;3.45;100.00;98510.28;5107469;27;20422;-78
2024/02/11 07:05:10;;;;;;;42.33;12.30;;;;;;;3.56;100.00;98515.28;5073631;28;20416;-78
2024/02/11 07:07:44;;;;;;;49.75;12.80;;;;;;;3.51;100.00;98514.53;5075908;28;20430;-78
2024/02/11 07:10:17;;;;;;;36.23;12.37;;;;;;;3.54;100.00;98511.25;5076360;28;20425;-78
2024/02/11 07:12:52;;;;;;;40.78;12.20;;;;;;;3.47;100.00;98516.97;5078552;28;20423;-78
2024/02/11 07:15:20;;;;;;;37.05;12.25;;;;;;;3.44;100.00;98517.56;5079675;28;20441;-78
2024/02/11 07:17:49;;;;;;;36.17;12.82;;;;;;;3.45;100.00;98519.13;5073942;28;20409;-78
2024/02/11 07:20:22;;;;;;;30.92;11.88;;;;;;;3.46;100.00;98519.97;5090257;27;20414;-78
2024/02/11 07:22:51;;;;;;;36.53;13.20;;;;;;;3.47;100.00;98524.25;5074808;28;20777;-78
2024/02/11 07:25:24;;;;;;;32.08;13.20;;;;;;;3.38;100.00;98534.81;5075702;28;20410;-78
2024/02/11 07:27:59;;;;;;;41.90;13.48;;;;;;;3.53;100.00;98529.28;5078500;28;20439;-78
2024/02/11 07:30:34;;;;;;;37.90;13.32;;;;;;;3.49;100.00;98535.50;5074773;28;20919;-78
2024/02/11 07:33:07;;;;;;;35.08;12.93;;;;;;;3.45;100.00;98546.03;5078609;28;20443;-78
2024/02/11 07:35:40;;;;;;;34.53;13.40;;;;;;;3.54;100.00;98543.53;5075527;28;20418;-78
2024/02/11 07:38:14;;;;;;;30.60;13.18;;;;;;;3.51;100.00;98552.19;5090012;27;21097;-78
2024/02/11 07:40:49;;;;;;;35.17;13.45;;;;;;;3.45;100.00;98559.47;5089712;27;20462;-78
2024/02/11 07:43:25;;;;;;;32.38;13.80;;;;;;;3.46;100.00;98563.00;5073148;28;20419;-78
2024/02/11 07:46:00;;;;;;;31.95;13.80;;;;;;;3.46;100.00;98560.28;5075397;28;20426;-78
2024/02/11 07:48:33;;;;;;;36.53;13.60;;;;;;;3.54;100.00;98567.75;5076147;28;20425;-78
2024/02/11 07:51:07;;;;;;;33.90;13.02;;;;;;;3.39;100.00;98576.75;5073893;28;20807;-78
2024/02/11 07:53:35;;;;;;;35.92;13.82;;;;;;;3.35;100.00;98581.91;5072419;28;20505;-78
2024/02/11 07:56:14;;;;;;;35.65;13.90;;;;;;;3.62;100.00;98590.50;5074561;28;21454;-78
2024/02/11 07:58:48;;;;;;;36.75;14.20;;;;;;;3.40;100.00;98591.81;5075743;28;20929;-78
2024/02/11 08:01:22;;;;;;;39.80;14.27;;;;;;;3.44;100.00;98592.03;5073304;28;20426;-78
2024/02/11 08:03:55;;;;;;;39.60;14.90;;;;;;;3.39;100.00;98587.50;5074725;28;20422;-78
2024/02/11 08:06:28;;;;;;;42.17;14.60;;;;;;;3.40;100.00;98598.00;5073859;28;20977;-78
2024/02/11 08:08:57;;;;;;;41.58;15.38;;;;;;;3.55;100.00;98591.66;5076164;28;20439;-78
2024/02/11 08:11:25;;;;;;;46.00;15.55;;;;;;;3.55;100.00;98593.56;5077452;28;20418;-78
2024/02/11 08:13:59;;;;;;;41.10;15.23;;;;;;;3.62;100.00;98598.56;5076823;28;20414;-78
2024/02/11 08:16:32;;;;;;;42.40;15.35;;;;;;;3.39;100.00;98595.59;5074951;28;20421;-78
2024/02/11 08:19:08;;;;;;;44.22;14.85;;;;;;;3.58;100.00;98593.78;5076945;28;20421;-78
2024/02/11 08:21:36;;;;;;;43.08;15.07;;;;;;;3.40;100.00;98603.38;5079570;28;21055;-78
2024/02/11 08:24:10;;;;;;;43.42;15.63;;;;;;;3.60;100.00;98606.94;5078505;28;20416;-78
2024/02/11 08:26:43;;;;;;;40.63;14.75;;;;;;;3.66;100.00;98605.00;5076898;28;20436;-80
2024/02/11 08:29:19;;;;;;;37.78;15.35;;;;;;;3.63;100.00;98602.88;5073066;28;20909;-80
2024/02/11 08:31:53;;;;;;;54.78;15.40;;;;;;;3.63;100.00;98614.44;5077754;28;20429;-80
2024/02/11 08:34:26;;;;;;;47.30;15.80;;;;;;;3.60;100.00;98614.22;5076409;28;20454;-80
2024/02/11 08:36:59;;;;;;;40.78;16.40;;;;;;;3.56;100.00;98614.78;5077282;28;21204;-80
2024/02/11 08:39:28;;;;;;;41.35;15.80;;;;;;;3.53;100.00;98617.22;5077478;28;20414;-80
2024/02/11 08:42:05;;;;;;;45.53;16.35;;;;;;;3.50;100.00;98610.53;5077191;28;20541;-80
2024/02/11 08:44:41;;;;;;;44.22;15.85;;;;;;;3.60;100.00;98615.00;5088195;27;20417;-78
2024/02/11 08:47:10;;;;;;;42.37;16.70;;;;;;;3.71;100.00;98611.13;5071962;28;20463;-79
2024/02/11 08:49:39;;;;;;;41.25;16.42;;;;;;;3.75;100.00;98606.78;5075587;28;20422;-79
2024/02/11 08:52:10;;;;;;;42.60;16.08;;;;;;;3.95;100.00;98613.03;5076054;28;20419;-79
2024/02/11 08:54:43;;;;;;;43.63;15.98;;;;;;;3.79;100.00;98607.00;5081355;28;20435;-79
2024/02/11 08:57:17;;;;;;;43.22;15.68;;;;;;;3.70;100.00;98620.28;5079803;28;20428;-79
2024/02/11 08:59:52;;;;;;;46.30;16.27;;;;;;;3.64;100.00;98624.09;5077889;28;20787;-79
2024/02/11 09:02:26;;;;;;;42.33;16.38;;;;;;;3.58;100.00;98626.06;5076294;28;20421;-79
2024/02/11 09:04:54;;;;;;;47.05;16.48;;;;;;;3.71;100.00;98624.56;5082060;28;20432;-80
2024/02/11 09:07:27;;;;;;;51.42;15.80;;;;;;;3.66;100.00;98627.31;5081553;28;20421;-79
2024/02/11 09:10:00;;;;;;;52.28;16.90;;;;;;;3.69;100.00;98629.44;5077886;28;20430;-79
2024/02/11 09:12:34;;;;;;;45.63;16.97;;;;;;;3.76;100.00;98629.09;5081023;28;20433;-78
2024/02/11 09:15:05;;;;;;;56.53;17.55;;;;;;;3.66;100.00;98635.41;5087724;28;20426;-79
2024/02/11 09:17:33;;;;;;;45.07;17.77;;;;;;;3.69;100.00;98629.44;5071552;28;20455;-78
2024/02/11 09:20:08;;;;;;;48.63;16.92;;;;;;;3.71;100.00;98634.53;5027642;28;20441;-85
2024/02/11 09:22:36;;;;;;;47.55;17.30;;;;;;;3.77;100.00;98630.72;5067599;28;21302;-79
2024/02/11 09:25:13;;;;;;;46.50;17.15;;;;;;;3.70;100.00;98625.69;5052397;28;20433;-79
2024/02/11 09:27:47;;;;;;;43.28;16.58;;;;;;;3.81;100.00;98633.63;5056573;28;20433;-78
2024/02/11 09:30:21;;;;;;;58.55;17.65;;;;;;;3.71;100.00;98629.16;5052099;28;20433;-79
2024/02/11 09:32:50;;;;;;;45.15;16.95;;;;;;;3.94;100.00;98621.41;5079133;28;20422;-78
2024/02/11 09:35:23;;;;;;;52.28;16.95;;;;;;;3.83;100.00;98632.25;5065337;28;20422;-78
2024/02/11 09:37:51;;;;;;;52.17;17.67;;;;;;;3.85;100.00;98631.97;5057224;28;20426;-83
2024/02/11 09:40:25;;;;;;;44.20;16.50;;;;;;;3.82;100.00;98633.34;5069859;28;20936;-79
2024/02/11 09:42:55;;;;;;;44.80;18.13;;;;;;;3.82;100.00;98621.78;5056016;28;20432;-79
2024/02/11 09:45:29;;;;;;;44.25;16.52;;;;;;;3.82;100.00;98622.56;5053298;28;20417;-79
2024/02/11 09:48:07;;;;;;;46.65;17.40;;;;;;;3.80;100.00;98629.31;5062183;28;20429;-78
2024/02/11 09:50:42;;;;;;;46.13;17.65;;;;;;;3.85;100.00;98623.91;5058791;28;20426;-80
2024/02/11 09:53:17;;;;;;;43.75;17.20;;;;;;;3.92;100.00;98618.97;5054882;28;20433;-80
2024/02/11 09:55:50;;;;;;;46.55;17.52;;;;;;;3.79;100.00;98628.53;5063503;28;22041;-80
2024/02/11 09:58:23;;;;;;;42.00;16.75;;;;;;;3.73;100.00;98627.78;5054679;28;21155;-80
2024/02/11 10:00:58;;;;;;;43.25;18.10;;;;;;;3.79;100.00;98623.16;5061819;28;20422;-80
2024/02/11 10:03:32;;;;;;;48.67;17.05;;;;;;;3.75;100.00;98630.97;5053554;28;21213;-81
2024/02/11 10:06:03;;;;;;;46.72;18.65;;;;;;;3.82;100.00;98624.47;5054302;28;20889;-78
2024/02/11 10:08:37;;;;;;;47.53;18.33;;;;;;;3.83;100.00;98629.56;5053939;28;20421;-78
2024/02/11 10:11:13;;;;;;;42.17;17.48;;;;;;;3.82;100.00;98627.16;5071100;27;20421;-79
2024/02/11 10:13:46;;;;;;;43.42;17.25;;;;;;;3.73;100.00;98627.00;5056810;28;20425;-78
2024/02/11 10:16:21;;;;;;;43.97;16.90;;;;;;;3.75;100.00;98628.28;5083195;27;20426;-78
2024/02/11 10:18:57;;;;;;;44.53;16.65;;;;;;;3.64;100.00;98626.78;5069470;28;20434;-78
2024/02/11 10:21:30;;;;;;;43.70;17.55;;;;;;;3.69;100.00;98637.50;5084284;27;20426;-79
2024/02/11 10:24:04;;;;;;;43.35;17.73;;;;;;;3.76;100.00;98637.19;5089817;27;20449;-78
2024/02/11 10:26:37;;;;;;;46.22;17.50;;;;;;;3.76;100.00;98631.81;5073155;28;20435;-78
2024/02/11 10:29:10;;;;;;;43.67;16.75;;;;;;;3.74;100.00;98631.28;5078049;28;20429;-78
2024/02/11 10:31:47;;;;;;;44.40;16.88;;;;;;;3.71;100.00;98627.25;5076212;28;20944;-78
2024/02/11 10:34:21;;;;;;;45.55;17.80;;;;;;;3.79;100.00;98625.84;5075783;28;20433;-78
2024/02/11 10:36:54;;;;;;;43.67;17.10;;;;;;;3.96;100.00;98629.97;5076984;28;20437;-78
2024/02/11 10:39:27;;;;;;;44.53;17.00;;;;;;;3.95;100.00;98634.56;5075008;28;20430;-78
2024/02/11 10:42:00;;;;;;;44.70;17.70;;;;;;;3.99;100.00;98643.66;5079394;28;20436;-78
2024/02/11 10:44:34;;;;;;;43.20;16.80;;;;;;;3.99;100.00;98634.78;5079026;28;20421;-78
2024/02/11 10:47:09;;;;;;;44.63;17.38;;;;;;;3.92;100.00;98633.25;5090123;28;20418;-78
2024/02/11 10:49:38;;;;;;;42.80;16.87;;;;;;;3.86;100.00;98645.13;5079504;28;20411;-78
2024/02/11 10:52:13;;;;;;;42.60;16.63;;;;;;;3.86;100.00;98636.28;5079383;28;20418;-78
2024/02/11 10:54:50;;;;;;;42.10;16.83;;;;;;;3.92;100.00;98649.38;5074372;28;20426;-78
2024/02/11 10:57:21;;;;;;;50.85;16.17;;;;;;;3.83;100.00;98650.31;5076348;28;20413;-78
2024/02/11 10:59:59;;;;;;;43.50;16.80;;;;;;;3.81;100.00;98642.53;5076371;28;20519;-78
2024/02/11 11:02:33;;;;;;;47.10;17.13;;;;;;;3.75;100.00;98644.44;5078618;28;20422;-78
2024/02/11 11:05:11;;;;;;;44.53;17.37;;;;;;;3.86;100.00;98647.81;5080188;28;20781;-78
2024/02/11 11:07:48;;;;;;;44.28;16.58;;;;;;;3.89;100.00;98646.47;5078093;28;20917;-78
2024/02/11 11:10:21;;;;;;;43.30;17.17;;;;;;;3.98;100.00;98641.25;5076506;28;20427;-78
2024/02/11 11:12:56;;;;;;;42.83;16.70;;;;;;;3.86;100.00;98637.06;5078585;28;20430;-78
2024/02/11 11:15:26;;;;;;;42.20;16.33;;;;;;;3.91;100.00;98649.69;5076963;28;20439;-78
2024/02/11 11:18:02;;;;;;;42.90;16.33;;;;;;;3.93;100.00;98652.88;5077372;28;20474;-78
2024/02/11 11:20:36;;;;;;;43.85;15.95;;;;;;;3.84;100.00;98638.44;5093320;27;20437;-78
2024/02/11 11:23:06;;;;;;;39.83;15.93;;;;;;;3.88;100.00;98648.34;5091758;27;20429;-78
2024/02/11 11:25:40;;;;;;;40.10;15.80;;;;;;;3.82;100.00;98654.88;5075963;28;20425;-78
2024/02/11 11:28:15;;;;;;;37.37;15.03;;;;;;;4.03;100.00;98660.03;5076135;28;20431;-78
2024/02/11 11:30:43;;;;;;;41.45;16.38;;;;;;;3.91;100.00;98649.69;5091645;28;20430;-78
2024/02/11 11:33:18;;;;;;;40.22;15.35;;;;;;;3.92;100.00;98649.38;5079623;28;20429;-78
2024/02/11 11:35:57;;;;;;;41.65;15.73;;;;;;;3.93;100.00;98644.78;5073946;28;20427;-78
2024/02/11 11:38:31;;;;;;;40.38;15.63;;;;;;;3.86;100.00;98644.34;5074368;28;20442;-78
2024/02/11 11:41:06;;;;;;;41.22;15.95;;;;;;;3.96;100.00;98641.53;5074879;28;20425;-78
2024/02/11 11:43:40;;;;;;;39.85;15.73;;;;;;;3.97;100.00;98642.34;5072321;28;20427;-78